YV1950 SVCS-SVBC
Flight info
| Callsign | YV1950 |
|---|---|
| Flight time | 0h 52m |
| Altitude | 11000 |
| Route | USOTI W14 BNA |
| Aircraft | C208/L-SDC/C |
Departure
| Time | 2026-04-28 03:02 |
|---|---|
| Airport | Caracas Óscar Machado Zuloaga International Airport (SVCS) |
Arrival
| Time | 2026-04-28 03:54 |
|---|---|
| Airport | General José Antonio Anzoategui International Airport (SVBC) |
| Time | Latitude | Longitude | Altitude | Speed | Heading |
|---|---|---|---|---|---|
| 2026-04-28 02:51 | 10.28847 | -66.82027 | 2170 ft | 0 kts | 184° |
| 2026-04-28 02:57 | 10.28834 | -66.82029 | 2170 ft | 6 kts | 194° |
| 2026-04-28 02:57 | 10.28831 | -66.82092 | 2170 ft | 7 kts | 271° |
| 2026-04-28 02:57 | 10.28828 | -66.82115 | 2165 ft | 4 kts | 244° |
| 2026-04-28 02:57 | 10.28787 | -66.82125 | 2168 ft | 7 kts | 212° |
| 2026-04-28 02:58 | 10.28781 | -66.82163 | 2166 ft | 9 kts | 273° |
| 2026-04-28 02:58 | 10.28786 | -66.82258 | 2170 ft | 18 kts | 272° |
| 2026-04-28 02:58 | 10.28795 | -66.82406 | 2169 ft | 23 kts | 274° |
| 2026-04-28 02:58 | 10.28799 | -66.82508 | 2172 ft | 3 kts | 228° |
| 2026-04-28 02:59 | 10.28795 | -66.82510 | 2172 ft | 0 kts | 190° |
| 2026-04-28 02:59 | 10.28780 | -66.82513 | 2172 ft | 6 kts | 189° |
| 2026-04-28 02:59 | 10.28751 | -66.82507 | 2172 ft | 5 kts | 97° |
| 2026-04-28 03:00 | 10.28746 | -66.82441 | 2172 ft | 18 kts | 94° |
| 2026-04-28 03:00 | 10.28729 | -66.82175 | 2164 ft | 57 kts | 93° |
| 2026-04-28 03:00 | 10.28696 | -66.81676 | 2176 ft | 82 kts | 94° |
| 2026-04-28 03:00 | 10.28653 | -66.81090 | 2270 ft | 83 kts | 93° |
| 2026-04-28 03:01 | 10.28611 | -66.80500 | 2365 ft | 85 kts | 92° |
| 2026-04-28 03:01 | 10.28576 | -66.79899 | 2507 ft | 86 kts | 94° |
| 2026-04-28 03:01 | 10.28430 | -66.79259 | 2576 ft | 100 kts | 117° |
| 2026-04-28 03:01 | 10.27878 | -66.78788 | 2670 ft | 111 kts | 153° |
| 2026-04-28 03:02 | 10.27318 | -66.78246 | 2772 ft | 117 kts | 123° |
| 2026-04-28 03:02 | 10.26798 | -66.77570 | 2903 ft | 125 kts | 123° |
| 2026-04-28 03:02 | 10.26400 | -66.76782 | 3097 ft | 125 kts | 109° |
| 2026-04-28 03:02 | 10.26043 | -66.75975 | 3300 ft | 125 kts | 112° |
| 2026-04-28 03:03 | 10.25673 | -66.75176 | 3503 ft | 125 kts | 112° |
| 2026-04-28 03:03 | 10.25301 | -66.74380 | 3708 ft | 125 kts | 112° |
| 2026-04-28 03:03 | 10.24930 | -66.73586 | 3901 ft | 125 kts | 112° |
| 2026-04-28 03:03 | 10.24556 | -66.72791 | 4105 ft | 125 kts | 113° |
| 2026-04-28 03:04 | 10.24181 | -66.71997 | 4307 ft | 124 kts | 114° |
| 2026-04-28 03:04 | 10.23813 | -66.71216 | 4507 ft | 124 kts | 113° |
| 2026-04-28 03:04 | 10.23442 | -66.70428 | 4706 ft | 124 kts | 114° |
| 2026-04-28 03:04 | 10.23069 | -66.69645 | 4899 ft | 123 kts | 115° |
| 2026-04-28 03:05 | 10.22692 | -66.68870 | 5106 ft | 122 kts | 115° |
| 2026-04-28 03:05 | 10.22323 | -66.68094 | 5305 ft | 122 kts | 115° |
| 2026-04-28 03:05 | 10.22002 | -66.67307 | 5497 ft | 121 kts | 98° |
| 2026-04-28 03:05 | 10.22023 | -66.66457 | 5698 ft | 120 kts | 91° |
| 2026-04-28 03:06 | 10.22016 | -66.65615 | 5899 ft | 119 kts | 93° |
| 2026-04-28 03:06 | 10.22005 | -66.64775 | 6097 ft | 118 kts | 93° |
| 2026-04-28 03:06 | 10.21991 | -66.63946 | 6301 ft | 117 kts | 94° |
| 2026-04-28 03:06 | 10.21975 | -66.63118 | 6464 ft | 118 kts | 94° |
| 2026-04-28 03:07 | 10.21956 | -66.62275 | 6653 ft | 120 kts | 95° |
| 2026-04-28 03:07 | 10.21938 | -66.61432 | 6830 ft | 119 kts | 94° |
| 2026-04-28 03:07 | 10.21920 | -66.60591 | 7004 ft | 119 kts | 95° |
| 2026-04-28 03:07 | 10.21903 | -66.59750 | 7181 ft | 119 kts | 95° |
| 2026-04-28 03:08 | 10.21886 | -66.58908 | 7354 ft | 119 kts | 95° |
| 2026-04-28 03:08 | 10.21871 | -66.58090 | 7517 ft | 114 kts | 94° |
| 2026-04-28 03:08 | 10.21854 | -66.57279 | 7638 ft | 116 kts | 95° |
| 2026-04-28 03:08 | 10.21834 | -66.56449 | 7769 ft | 120 kts | 95° |
| 2026-04-28 03:09 | 10.21813 | -66.55596 | 7897 ft | 124 kts | 94° |
| 2026-04-28 03:09 | 10.21792 | -66.54714 | 8034 ft | 126 kts | 95° |
| 2026-04-28 03:09 | 10.21770 | -66.53814 | 8162 ft | 127 kts | 95° |
| 2026-04-28 03:09 | 10.21752 | -66.52917 | 8293 ft | 128 kts | 95° |
| 2026-04-28 03:10 | 10.21734 | -66.52019 | 8417 ft | 127 kts | 95° |
| 2026-04-28 03:10 | 10.21715 | -66.51119 | 8542 ft | 128 kts | 95° |
| 2026-04-28 03:10 | 10.21694 | -66.50222 | 8673 ft | 127 kts | 95° |
| 2026-04-28 03:10 | 10.21675 | -66.49319 | 8802 ft | 129 kts | 95° |
| 2026-04-28 03:11 | 10.21654 | -66.48406 | 8932 ft | 130 kts | 95° |
| 2026-04-28 03:11 | 10.21645 | -66.47482 | 9059 ft | 131 kts | 95° |
| 2026-04-28 03:11 | 10.21612 | -66.46557 | 9186 ft | 131 kts | 95° |
| 2026-04-28 03:11 | 10.21589 | -66.45626 | 9309 ft | 132 kts | 95° |
| 2026-04-28 03:12 | 10.21571 | -66.44691 | 9433 ft | 132 kts | 95° |
| 2026-04-28 03:12 | 10.21552 | -66.43758 | 9559 ft | 133 kts | 95° |
| 2026-04-28 03:12 | 10.21532 | -66.42818 | 9684 ft | 133 kts | 95° |
| 2026-04-28 03:12 | 10.21512 | -66.41874 | 9808 ft | 134 kts | 95° |
| 2026-04-28 03:13 | 10.21491 | -66.40926 | 9932 ft | 134 kts | 95° |
| 2026-04-28 03:13 | 10.21470 | -66.39988 | 10057 ft | 135 kts | 95° |
| 2026-04-28 03:13 | 10.21450 | -66.39021 | 10183 ft | 135 kts | 95° |
| 2026-04-28 03:13 | 10.21435 | -66.38063 | 10298 ft | 136 kts | 95° |
| 2026-04-28 03:14 | 10.21413 | -66.37116 | 10428 ft | 136 kts | 95° |
| 2026-04-28 03:14 | 10.21391 | -66.36155 | 10553 ft | 137 kts | 95° |
| 2026-04-28 03:14 | 10.21371 | -66.35187 | 10662 ft | 137 kts | 95° |
| 2026-04-28 03:14 | 10.21348 | -66.34219 | 10798 ft | 137 kts | 95° |
| 2026-04-28 03:15 | 10.21328 | -66.33248 | 10918 ft | 138 kts | 95° |
| 2026-04-28 03:15 | 10.21306 | -66.32267 | 10998 ft | 142 kts | 95° |
| 2026-04-28 03:15 | 10.21279 | -66.31246 | 11007 ft | 147 kts | 95° |
| 2026-04-28 03:15 | 10.21256 | -66.30198 | 11011 ft | 150 kts | 95° |
| 2026-04-28 03:16 | 10.21231 | -66.29130 | 11011 ft | 152 kts | 95° |
| 2026-04-28 03:16 | 10.21207 | -66.28053 | 11007 ft | 153 kts | 95° |
| 2026-04-28 03:16 | 10.21184 | -66.26973 | 11010 ft | 153 kts | 95° |
| 2026-04-28 03:16 | 10.21159 | -66.25890 | 11008 ft | 153 kts | 95° |
| 2026-04-28 03:17 | 10.21134 | -66.24807 | 11009 ft | 153 kts | 95° |
| 2026-04-28 03:17 | 10.21087 | -66.22655 | 11008 ft | 154 kts | 95° |
| 2026-04-28 03:17 | 10.21061 | -66.21571 | 11008 ft | 154 kts | 95° |
| 2026-04-28 03:18 | 10.21038 | -66.20486 | 11006 ft | 154 kts | 95° |
| 2026-04-28 03:18 | 10.21014 | -66.19399 | 11007 ft | 154 kts | 95° |
| 2026-04-28 03:18 | 10.20992 | -66.18315 | 11008 ft | 154 kts | 95° |
| 2026-04-28 03:18 | 10.20970 | -66.17229 | 11009 ft | 154 kts | 95° |
| 2026-04-28 03:19 | 10.20945 | -66.16144 | 11007 ft | 154 kts | 95° |
| 2026-04-28 03:19 | 10.20919 | -66.15052 | 11008 ft | 155 kts | 95° |
| 2026-04-28 03:19 | 10.20894 | -66.13962 | 11009 ft | 154 kts | 95° |
| 2026-04-28 03:19 | 10.20870 | -66.12869 | 11010 ft | 155 kts | 95° |
| 2026-04-28 03:20 | 10.20845 | -66.11778 | 11009 ft | 155 kts | 95° |
| 2026-04-28 03:20 | 10.20820 | -66.10684 | 11008 ft | 154 kts | 95° |
| 2026-04-28 03:20 | 10.20795 | -66.09596 | 11007 ft | 154 kts | 95° |
| 2026-04-28 03:20 | 10.20771 | -66.08509 | 11006 ft | 154 kts | 95° |
| 2026-04-28 03:21 | 10.20746 | -66.07426 | 11006 ft | 153 kts | 95° |
| 2026-04-28 03:21 | 10.20720 | -66.06343 | 11005 ft | 153 kts | 95° |
| 2026-04-28 03:21 | 10.20695 | -66.05261 | 11004 ft | 153 kts | 95° |
| 2026-04-28 03:21 | 10.20671 | -66.04179 | 11004 ft | 153 kts | 95° |
| 2026-04-28 03:22 | 10.20646 | -66.03113 | 11004 ft | 153 kts | 95° |
| 2026-04-28 03:22 | 10.20622 | -66.02034 | 11004 ft | 153 kts | 95° |
| 2026-04-28 03:22 | 10.20596 | -66.00957 | 11004 ft | 153 kts | 95° |
| 2026-04-28 03:22 | 10.20572 | -65.99879 | 11003 ft | 153 kts | 95° |
| 2026-04-28 03:23 | 10.20547 | -65.98800 | 11004 ft | 153 kts | 95° |
| 2026-04-28 03:23 | 10.20522 | -65.97722 | 11002 ft | 153 kts | 95° |
| 2026-04-28 03:23 | 10.20497 | -65.96645 | 11003 ft | 152 kts | 95° |
| 2026-04-28 03:23 | 10.20473 | -65.95569 | 11002 ft | 152 kts | 95° |
| 2026-04-28 03:24 | 10.20445 | -65.94490 | 11003 ft | 153 kts | 95° |
| 2026-04-28 03:24 | 10.20421 | -65.93412 | 11002 ft | 153 kts | 95° |
| 2026-04-28 03:24 | 10.20396 | -65.92335 | 11003 ft | 153 kts | 95° |
| 2026-04-28 03:24 | 10.20371 | -65.91273 | 11003 ft | 153 kts | 95° |
| 2026-04-28 03:25 | 10.20346 | -65.90197 | 11004 ft | 153 kts | 95° |
| 2026-04-28 03:25 | 10.20321 | -65.89117 | 11004 ft | 153 kts | 95° |
| 2026-04-28 03:25 | 10.20295 | -65.88036 | 11004 ft | 153 kts | 95° |
| 2026-04-28 03:25 | 10.20269 | -65.86956 | 11004 ft | 153 kts | 95° |
| 2026-04-28 03:26 | 10.20244 | -65.85873 | 11004 ft | 153 kts | 95° |
| 2026-04-28 03:26 | 10.20219 | -65.84792 | 11004 ft | 153 kts | 95° |
| 2026-04-28 03:26 | 10.20191 | -65.83711 | 11004 ft | 153 kts | 95° |
| 2026-04-28 03:26 | 10.20167 | -65.82644 | 11004 ft | 153 kts | 95° |
| 2026-04-28 03:27 | 10.20141 | -65.81562 | 11004 ft | 154 kts | 95° |
| 2026-04-28 03:27 | 10.20115 | -65.80480 | 11002 ft | 153 kts | 95° |
| 2026-04-28 03:27 | 10.20089 | -65.79397 | 11003 ft | 153 kts | 95° |
| 2026-04-28 03:27 | 10.20064 | -65.78312 | 11004 ft | 153 kts | 95° |
| 2026-04-28 03:28 | 10.20038 | -65.77231 | 11004 ft | 153 kts | 95° |
| 2026-04-28 03:28 | 10.20013 | -65.76150 | 11004 ft | 153 kts | 95° |
| 2026-04-28 03:28 | 10.19989 | -65.75067 | 10999 ft | 153 kts | 95° |
| 2026-04-28 03:28 | 10.19965 | -65.74074 | 10997 ft | 153 kts | 95° |
| 2026-04-28 03:29 | 10.19938 | -65.72992 | 11001 ft | 153 kts | 95° |
| 2026-04-28 03:29 | 10.19911 | -65.71912 | 11002 ft | 153 kts | 95° |
| 2026-04-28 03:29 | 10.19886 | -65.70828 | 11004 ft | 153 kts | 95° |
| 2026-04-28 03:29 | 10.19860 | -65.69759 | 11004 ft | 153 kts | 95° |
| 2026-04-28 03:30 | 10.19834 | -65.68679 | 11004 ft | 153 kts | 95° |
| 2026-04-28 03:30 | 10.19808 | -65.67597 | 11004 ft | 153 kts | 95° |
| 2026-04-28 03:30 | 10.19782 | -65.66516 | 11004 ft | 153 kts | 95° |
| 2026-04-28 03:30 | 10.19756 | -65.65434 | 11005 ft | 153 kts | 95° |
| 2026-04-28 03:31 | 10.19729 | -65.64351 | 11005 ft | 153 kts | 95° |
| 2026-04-28 03:31 | 10.19703 | -65.63268 | 11006 ft | 153 kts | 95° |
| 2026-04-28 03:31 | 10.19676 | -65.62187 | 11005 ft | 153 kts | 95° |
| 2026-04-28 03:31 | 10.19650 | -65.61107 | 11006 ft | 153 kts | 95° |
| 2026-04-28 03:32 | 10.19624 | -65.60024 | 11005 ft | 153 kts | 95° |
| 2026-04-28 03:32 | 10.19597 | -65.58942 | 11005 ft | 153 kts | 95° |
| 2026-04-28 03:32 | 10.19569 | -65.57844 | 10899 ft | 159 kts | 95° |
| 2026-04-28 03:32 | 10.19538 | -65.56707 | 10781 ft | 164 kts | 95° |
| 2026-04-28 03:33 | 10.19509 | -65.55543 | 10663 ft | 166 kts | 95° |
| 2026-04-28 03:33 | 10.19479 | -65.54369 | 10543 ft | 167 kts | 95° |
| 2026-04-28 03:33 | 10.19451 | -65.53189 | 10421 ft | 168 kts | 95° |
| 2026-04-28 03:33 | 10.19422 | -65.52004 | 10299 ft | 168 kts | 94° |
| 2026-04-28 03:34 | 10.19393 | -65.50818 | 10172 ft | 168 kts | 94° |
| 2026-04-28 03:34 | 10.19363 | -65.49629 | 10048 ft | 168 kts | 94° |
| 2026-04-28 03:34 | 10.19336 | -65.48456 | 9922 ft | 168 kts | 94° |
| 2026-04-28 03:34 | 10.19306 | -65.47269 | 9796 ft | 168 kts | 94° |
| 2026-04-28 03:35 | 10.19277 | -65.46081 | 9670 ft | 168 kts | 94° |
| 2026-04-28 03:35 | 10.19248 | -65.44900 | 9546 ft | 167 kts | 94° |
| 2026-04-28 03:35 | 10.19223 | -65.43720 | 9424 ft | 167 kts | 94° |
| 2026-04-28 03:35 | 10.19193 | -65.42544 | 9301 ft | 167 kts | 94° |
| 2026-04-28 03:36 | 10.19163 | -65.41365 | 9178 ft | 167 kts | 94° |
| 2026-04-28 03:36 | 10.19134 | -65.40179 | 9031 ft | 169 kts | 94° |
| 2026-04-28 03:36 | 10.19105 | -65.38987 | 8883 ft | 169 kts | 94° |
| 2026-04-28 03:36 | 10.19074 | -65.37789 | 8733 ft | 170 kts | 94° |
| 2026-04-28 03:37 | 10.19044 | -65.36589 | 8575 ft | 170 kts | 94° |
| 2026-04-28 03:37 | 10.19013 | -65.35384 | 8407 ft | 171 kts | 94° |
| 2026-04-28 03:37 | 10.18983 | -65.34174 | 8233 ft | 171 kts | 94° |
| 2026-04-28 03:37 | 10.18953 | -65.32967 | 8083 ft | 171 kts | 94° |
| 2026-04-28 03:38 | 10.18924 | -65.31778 | 7935 ft | 170 kts | 94° |
| 2026-04-28 03:38 | 10.18894 | -65.30579 | 7785 ft | 169 kts | 94° |
| 2026-04-28 03:38 | 10.18865 | -65.29382 | 7634 ft | 169 kts | 94° |
| 2026-04-28 03:38 | 10.18835 | -65.28191 | 7484 ft | 169 kts | 94° |
| 2026-04-28 03:39 | 10.18805 | -65.27004 | 7351 ft | 167 kts | 94° |
| 2026-04-28 03:39 | 10.18774 | -65.25822 | 7200 ft | 167 kts | 94° |
| 2026-04-28 03:39 | 10.18744 | -65.24638 | 7032 ft | 168 kts | 93° |
| 2026-04-28 03:39 | 10.18714 | -65.23450 | 6857 ft | 169 kts | 94° |
| 2026-04-28 03:40 | 10.18681 | -65.22259 | 6683 ft | 169 kts | 93° |
| 2026-04-28 03:40 | 10.18651 | -65.21064 | 6508 ft | 169 kts | 93° |
| 2026-04-28 03:40 | 10.18620 | -65.19878 | 6334 ft | 168 kts | 93° |
| 2026-04-28 03:40 | 10.18590 | -65.18709 | 6161 ft | 167 kts | 93° |
| 2026-04-28 03:41 | 10.18561 | -65.17529 | 5985 ft | 167 kts | 93° |
| 2026-04-28 03:41 | 10.18531 | -65.16350 | 5803 ft | 167 kts | 93° |
| 2026-04-28 03:41 | 10.18500 | -65.15171 | 5624 ft | 167 kts | 93° |
| 2026-04-28 03:41 | 10.18469 | -65.13985 | 5429 ft | 168 kts | 93° |
| 2026-04-28 03:42 | 10.18410 | -65.11609 | 5076 ft | 168 kts | 92° |
| 2026-04-28 03:42 | 10.18388 | -65.10809 | 4958 ft | 168 kts | 92° |
| 2026-04-28 03:42 | 10.18356 | -65.09626 | 4785 ft | 168 kts | 92° |
| 2026-04-28 03:43 | 10.18327 | -65.08443 | 4622 ft | 167 kts | 92° |
| 2026-04-28 03:43 | 10.18296 | -65.07270 | 4458 ft | 166 kts | 92° |
| 2026-04-28 03:43 | 10.18265 | -65.06093 | 4284 ft | 167 kts | 92° |
| 2026-04-28 03:43 | 10.18232 | -65.04916 | 4109 ft | 167 kts | 92° |
| 2026-04-28 03:44 | 10.18202 | -65.03752 | 3936 ft | 167 kts | 92° |
| 2026-04-28 03:44 | 10.18172 | -65.02578 | 3762 ft | 166 kts | 91° |
| 2026-04-28 03:44 | 10.18142 | -65.01402 | 3586 ft | 166 kts | 91° |
| 2026-04-28 03:44 | 10.18113 | -65.00231 | 3408 ft | 166 kts | 91° |
| 2026-04-28 03:45 | 10.18081 | -64.99059 | 3234 ft | 166 kts | 91° |
| 2026-04-28 03:45 | 10.18049 | -64.97890 | 3088 ft | 164 kts | 91° |
| 2026-04-28 03:45 | 10.18020 | -64.96736 | 2954 ft | 163 kts | 91° |
| 2026-04-28 03:45 | 10.17991 | -64.95592 | 2834 ft | 162 kts | 91° |
| 2026-04-28 03:46 | 10.17961 | -64.94455 | 2725 ft | 161 kts | 91° |
| 2026-04-28 03:46 | 10.17932 | -64.93323 | 2622 ft | 160 kts | 91° |
| 2026-04-28 03:46 | 10.17902 | -64.92196 | 2521 ft | 160 kts | 91° |
| 2026-04-28 03:46 | 10.17872 | -64.91070 | 2436 ft | 159 kts | 91° |
| 2026-04-28 03:47 | 10.17843 | -64.89952 | 2361 ft | 158 kts | 91° |
| 2026-04-28 03:47 | 10.17813 | -64.88840 | 2285 ft | 158 kts | 90° |
| 2026-04-28 03:47 | 10.17783 | -64.87722 | 2185 ft | 159 kts | 91° |
| 2026-04-28 03:47 | 10.17751 | -64.86597 | 2084 ft | 160 kts | 91° |
| 2026-04-28 03:48 | 10.17722 | -64.85482 | 1985 ft | 161 kts | 91° |
| 2026-04-28 03:48 | 10.17691 | -64.84346 | 1885 ft | 161 kts | 91° |
| 2026-04-28 03:48 | 10.17660 | -64.83208 | 1800 ft | 161 kts | 91° |
| 2026-04-28 03:48 | 10.17631 | -64.82070 | 1725 ft | 160 kts | 91° |
| 2026-04-28 03:49 | 10.17601 | -64.80941 | 1650 ft | 160 kts | 91° |
| 2026-04-28 03:49 | 10.17570 | -64.79806 | 1574 ft | 161 kts | 91° |
| 2026-04-28 03:49 | 10.17539 | -64.78696 | 1494 ft | 152 kts | 91° |
| 2026-04-28 03:49 | 10.17512 | -64.77685 | 1398 ft | 136 kts | 91° |
| 2026-04-28 03:50 | 10.17494 | -64.76789 | 1408 ft | 113 kts | 90° |
| 2026-04-28 03:50 | 10.17479 | -64.76071 | 1398 ft | 94 kts | 90° |
| 2026-04-28 03:50 | 10.17463 | -64.75440 | 1391 ft | 86 kts | 90° |
| 2026-04-28 03:50 | 10.17432 | -64.74841 | 1385 ft | 84 kts | 101° |
| 2026-04-28 03:51 | 10.17163 | -64.74299 | 1320 ft | 90 kts | 121° |
| 2026-04-28 03:51 | 10.16785 | -64.73777 | 1237 ft | 92 kts | 126° |
| 2026-04-28 03:51 | 10.16352 | -64.73285 | 1150 ft | 94 kts | 135° |
| 2026-04-28 03:51 | 10.15834 | -64.72849 | 1022 ft | 99 kts | 140° |
| 2026-04-28 03:52 | 10.15283 | -64.72418 | 859 ft | 102 kts | 142° |
| 2026-04-28 03:52 | 10.14732 | -64.72006 | 748 ft | 98 kts | 142° |
| 2026-04-28 03:52 | 10.14194 | -64.71609 | 652 ft | 95 kts | 142° |
| 2026-04-28 03:52 | 10.13670 | -64.71193 | 493 ft | 97 kts | 141° |
| 2026-04-28 03:53 | 10.13130 | -64.70776 | 325 ft | 96 kts | 142° |
| 2026-04-28 03:53 | 10.12597 | -64.70364 | 156 ft | 95 kts | 142° |
| 2026-04-28 03:53 | 10.12108 | -64.69987 | 43 ft | 82 kts | 142° |
| 2026-04-28 03:53 | 10.11695 | -64.69669 | 27 ft | 66 kts | 144° |
| 2026-04-28 03:54 | 10.11415 | -64.69454 | 29 ft | 37 kts | 143° |
| 2026-04-28 03:54 | 10.11237 | -64.69316 | 31 ft | 31 kts | 142° |
| 2026-04-28 03:54 | 10.11055 | -64.69175 | 33 ft | 34 kts | 143° |
| 2026-04-28 03:54 | 10.10861 | -64.69025 | 33 ft | 34 kts | 142° |
| 2026-04-28 03:55 | 10.10736 | -64.68916 | 32 ft | 13 kts | 109° |
| 2026-04-28 03:55 | 10.10742 | -64.68844 | 32 ft | 9 kts | 77° |
| 2026-04-28 03:55 | 10.10757 | -64.68778 | 32 ft | 13 kts | 78° |
| 2026-04-28 03:55 | 10.10737 | -64.68712 | 32 ft | 9 kts | 167° |
| 2026-04-28 03:56 | 10.10734 | -64.68660 | 33 ft | 7 kts | 75° |
| 2026-04-28 03:56 | 10.10759 | -64.68657 | 33 ft | 2 kts | 346° |
| 2026-04-28 03:56 | 10.10761 | -64.68657 | 33 ft | 0 kts | 346° |